createdAt,value
2019-06-02T00:00:35.744Z,1.37
2019-06-02T00:03:04.129Z,1.53
2019-06-02T00:05:32.756Z,1.57
2019-06-02T00:08:01.316Z,0.93
2019-06-02T00:10:30.543Z,1.03
2019-06-02T00:12:59.064Z,1.23
2019-06-02T00:15:28.769Z,1.10
2019-06-02T00:17:58.357Z,1.30
2019-06-02T00:20:27.116Z,1.53
2019-06-02T00:22:55.640Z,1.00
2019-06-02T00:25:25.175Z,0.90
2019-06-02T00:27:53.784Z,1.90
2019-06-02T00:30:22.234Z,1.40
2019-06-02T00:32:50.732Z,1.10
2019-06-02T00:35:19.146Z,1.20
2019-06-02T00:37:47.606Z,1.63
2019-06-02T00:40:17.660Z,1.30
2019-06-02T00:42:46.082Z,1.00
2019-06-02T00:45:15.298Z,1.07
2019-06-02T00:47:43.725Z,1.57
2019-06-02T00:50:12.149Z,1.43
2019-06-02T00:52:40.837Z,1.03
2019-06-02T00:55:09.266Z,1.40
2019-06-02T00:57:38.246Z,1.10
2019-06-02T01:00:07.366Z,1.10
2019-06-02T01:02:36.222Z,1.57
2019-06-02T01:05:07.647Z,1.60
2019-06-02T01:07:36.619Z,2.10
2019-06-02T01:10:06.858Z,1.10
2019-06-02T01:12:36.508Z,1.37
2019-06-02T01:15:09.136Z,1.20
2019-06-02T01:17:37.030Z,1.50
2019-06-02T01:20:09.122Z,1.10
2019-06-02T01:22:37.565Z,1.40
2019-06-02T01:25:07.674Z,1.40
2019-06-02T01:27:37.346Z,1.13
2019-06-02T01:30:07.069Z,1.27
2019-06-02T01:32:36.030Z,1.40
2019-06-02T01:35:06.598Z,1.50
2019-06-02T01:37:35.852Z,1.30
2019-06-02T01:40:04.968Z,1.60
2019-06-02T01:42:34.264Z,1.00
2019-06-02T01:45:03.523Z,1.53
2019-06-02T01:47:32.527Z,1.50
2019-06-02T01:50:01.066Z,1.27
2019-06-02T01:52:30.759Z,0.97
2019-06-02T01:54:59.346Z,1.60
2019-06-02T01:57:27.783Z,1.20
2019-06-02T01:59:56.233Z,1.10
2019-06-02T02:02:24.772Z,1.80
2019-06-02T02:04:53.148Z,1.00
2019-06-02T02:07:21.613Z,0.97
2019-06-02T02:09:50.030Z,1.13
2019-06-02T02:12:18.463Z,1.20
2019-06-02T02:14:46.907Z,0.97
2019-06-02T02:17:15.324Z,1.33
2019-06-02T02:19:43.749Z,1.20
2019-06-02T02:22:12.182Z,1.60
2019-06-02T02:24:40.610Z,1.27
2019-06-02T02:27:09.026Z,1.47
2019-06-02T02:29:38.636Z,1.10
2019-06-02T02:32:07.213Z,1.53
2019-06-02T02:34:37.601Z,0.83
2019-06-02T02:37:05.768Z,1.37
2019-06-02T02:39:34.733Z,1.00
2019-06-02T02:42:03.193Z,0.83
2019-06-02T02:44:31.645Z,0.93
2019-06-02T02:47:00.140Z,0.70
2019-06-02T02:49:28.563Z,0.70
2019-06-02T02:51:57.681Z,1.10
2019-06-02T02:54:26.352Z,0.93
2019-06-02T02:56:54.774Z,0.90
2019-06-02T02:59:23.294Z,0.80
2019-06-02T03:01:51.654Z,1.27
2019-06-02T03:04:20.073Z,0.73
2019-06-02T03:06:48.501Z,1.17
2019-06-02T03:09:16.926Z,0.70
2019-06-02T03:11:47.196Z,1.03
2019-06-02T03:14:15.475Z,1.23
2019-06-02T03:16:44.940Z,1.10
2019-06-02T03:19:13.964Z,0.90
2019-06-02T03:21:42.474Z,0.87
2019-06-02T03:24:10.867Z,1.40
2019-06-02T03:26:40.272Z,1.23
2019-06-02T03:29:08.828Z,1.00
2019-06-02T03:31:39.155Z,1.00
2019-06-02T03:34:07.337Z,1.10
2019-06-02T03:36:38.774Z,0.90
2019-06-02T03:39:07.155Z,1.10
2019-06-02T03:41:37.226Z,1.00
2019-06-02T03:44:05.847Z,0.90
2019-06-02T03:46:51.588Z,1.03
2019-06-02T03:49:04.396Z,1.17
2019-06-02T03:51:32.852Z,1.20
2019-06-02T03:54:01.296Z,1.70
2019-06-02T03:56:29.713Z,1.20
2019-06-02T03:58:58.172Z,1.13
2019-06-02T04:01:26.596Z,1.77
2019-06-02T04:03:55.033Z,1.37
2019-06-02T04:06:23.498Z,1.00
2019-06-02T04:08:51.921Z,1.20
2019-06-02T04:11:20.352Z,1.93
2019-06-02T04:13:50.125Z,1.50
2019-06-02T04:16:19.086Z,1.40
2019-06-02T04:18:48.365Z,0.80
2019-06-02T04:21:17.605Z,1.10
2019-06-02T04:23:46.391Z,1.20
2019-06-02T04:26:15.177Z,1.00
2019-06-02T04:28:44.247Z,1.23
2019-06-02T04:31:12.761Z,1.23
2019-06-02T04:33:42.628Z,1.10
2019-06-02T04:36:11.234Z,2.60
2019-06-02T04:38:40.902Z,2.83
2019-06-02T04:41:09.389Z,2.90
2019-06-02T04:43:37.830Z,1.70
2019-06-02T04:46:06.248Z,1.80
2019-06-02T04:48:34.659Z,1.53
2019-06-02T04:51:03.110Z,0.93
2019-06-02T04:53:31.531Z,0.70
2019-06-02T04:55:59.949Z,0.93
2019-06-02T04:58:28.406Z,0.80
2019-06-02T05:00:56.819Z,1.00
2019-06-02T05:03:25.914Z,2.07
2019-06-02T05:05:54.498Z,0.93
2019-06-02T05:08:22.929Z,1.53
2019-06-02T05:10:52.536Z,0.80
2019-06-02T05:13:21.011Z,0.90
2019-06-02T05:15:50.597Z,0.93
2019-06-02T05:18:19.489Z,0.83
2019-06-02T05:20:48.838Z,1.33
2019-06-02T05:23:17.368Z,0.80
2019-06-02T05:25:46.783Z,1.90
2019-06-02T05:28:15.359Z,0.87
2019-06-02T05:30:43.943Z,0.67
2019-06-02T05:33:12.488Z,0.67
2019-06-02T05:35:40.932Z,1.67
2019-06-02T05:38:09.363Z,0.70
2019-06-02T05:40:37.763Z,0.90
2019-06-02T05:43:06.221Z,0.60
2019-06-02T05:45:34.641Z,0.57
2019-06-02T05:48:13.979Z,1.10
2019-06-02T05:50:33.160Z,0.60
2019-06-02T05:53:01.645Z,0.50
2019-06-02T05:55:30.173Z,1.23
2019-06-02T05:57:58.664Z,0.70
2019-06-02T06:00:27.088Z,1.80
2019-06-02T06:03:00.642Z,1.00
2019-06-02T06:05:25.587Z,1.10
2019-06-02T06:07:54.592Z,1.83
2019-06-02T06:10:23.120Z,1.30
2019-06-02T06:12:51.569Z,1.20
2019-06-02T06:15:19.988Z,1.00
2019-06-02T06:17:49.701Z,1.10
2019-06-02T06:20:18.364Z,1.63
2019-06-02T06:22:47.136Z,1.30
2019-06-02T06:25:15.577Z,1.30
2019-06-02T06:27:44.088Z,1.37
2019-06-02T06:30:13.107Z,1.37
2019-06-02T06:32:41.506Z,1.33
2019-06-02T06:35:09.948Z,1.13
2019-06-02T06:37:38.376Z,2.47
2019-06-02T06:40:07.732Z,1.63
2019-06-02T06:42:36.176Z,1.40
2019-06-02T06:45:06.539Z,1.37
2019-06-02T06:47:34.974Z,0.80
2019-06-02T06:50:05.200Z,1.10
2019-06-02T06:52:34.867Z,1.10
2019-06-02T06:55:08.838Z,1.00
2019-06-02T06:57:34.936Z,0.93
2019-06-02T07:00:06.217Z,0.90
2019-06-02T07:02:34.736Z,0.97
2019-06-02T07:05:04.117Z,1.20
2019-06-02T07:07:32.573Z,1.10
2019-06-02T07:10:01.047Z,0.90
2019-06-02T07:12:29.453Z,1.30
2019-06-02T07:14:59.437Z,0.83
2019-06-02T07:17:28.056Z,1.00
2019-06-02T07:19:57.637Z,0.90
2019-06-02T07:22:27.027Z,1.47
2019-06-02T07:24:56.617Z,0.87
2019-06-02T07:27:25.383Z,0.90
2019-06-02T07:29:54.273Z,0.90
2019-06-02T07:32:22.700Z,1.07
2019-06-02T07:34:51.237Z,0.87
2019-06-02T07:37:19.770Z,1.10
2019-06-02T07:39:48.186Z,0.60
2019-06-02T07:42:16.643Z,0.90
2019-06-02T07:44:46.799Z,0.83
2019-06-02T07:47:15.153Z,0.73
2019-06-02T07:49:43.613Z,0.90
2019-06-02T07:52:13.099Z,1.10
2019-06-02T07:54:42.090Z,0.90
2019-06-02T07:57:13.554Z,1.23
2019-06-02T07:59:40.642Z,0.97
2019-06-02T08:02:10.370Z,0.63
2019-06-02T08:04:39.021Z,0.50
2019-06-02T08:07:08.124Z,0.60
2019-06-02T08:09:36.653Z,1.27
2019-06-02T08:12:05.107Z,0.80
2019-06-02T08:14:33.538Z,1.07
2019-06-02T08:17:02.534Z,0.70
2019-06-02T08:19:44.625Z,0.90
2019-06-02T08:22:01.064Z,0.93
2019-06-02T08:24:29.473Z,0.70
2019-06-02T08:26:57.915Z,0.90
2019-06-02T08:29:26.341Z,0.97
2019-06-02T08:31:54.777Z,1.33
2019-06-02T08:34:23.232Z,0.70
2019-06-02T08:36:51.643Z,1.10
2019-06-02T08:39:20.065Z,0.87
2019-06-02T08:41:48.507Z,0.80
2019-06-02T08:44:16.916Z,1.03
2019-06-02T08:46:45.346Z,1.00
2019-06-02T08:49:13.808Z,0.70
2019-06-02T08:51:42.218Z,1.00
2019-06-02T08:54:10.664Z,0.80
2019-06-02T08:56:39.114Z,1.00
2019-06-02T08:59:08.420Z,1.00
2019-06-02T09:01:36.888Z,2.00
2019-06-02T09:04:05.609Z,1.07
2019-06-02T09:06:34.053Z,1.20
2019-06-02T09:09:03.731Z,1.30
2019-06-02T09:11:32.299Z,1.27
2019-06-02T09:14:00.708Z,1.47
2019-06-02T09:16:30.619Z,1.43
2019-06-02T09:18:59.152Z,2.20
2019-06-02T09:21:27.567Z,1.63
2019-06-02T09:23:55.976Z,1.37
2019-06-02T09:26:24.419Z,1.63
2019-06-02T09:28:52.842Z,1.43
2019-06-02T09:31:21.274Z,1.27
2019-06-02T09:33:49.757Z,1.27
2019-06-02T09:36:18.156Z,1.10
2019-06-02T09:38:46.564Z,1.60
2019-06-02T09:41:15.354Z,1.50
2019-06-02T09:43:43.848Z,1.27
2019-06-02T09:46:13.562Z,1.50
2019-06-02T09:48:42.131Z,1.50
2019-06-02T09:51:11.805Z,1.40
2019-06-02T09:53:40.379Z,2.13
2019-06-02T09:56:09.595Z,1.53
2019-06-02T09:58:38.148Z,1.43
2019-06-02T10:01:08.454Z,1.30
2019-06-02T10:03:37.496Z,2.00
2019-06-02T10:06:07.790Z,1.37
2019-06-02T10:08:35.980Z,1.20
2019-06-02T10:11:05.761Z,1.30
2019-06-02T10:13:34.240Z,2.50
2019-06-02T10:16:02.671Z,1.20
2019-06-02T10:18:31.116Z,1.80
2019-06-02T10:21:04.546Z,1.47
2019-06-02T10:23:29.874Z,1.43
2019-06-02T10:25:58.423Z,1.33
2019-06-02T10:28:26.851Z,1.10
2019-06-02T10:30:55.263Z,0.90
2019-06-02T10:33:23.727Z,0.90
2019-06-02T10:35:52.188Z,0.83
2019-06-02T10:38:20.591Z,1.77
2019-06-02T10:40:49.050Z,1.47
2019-06-02T10:43:17.546Z,0.80
2019-06-02T10:45:45.992Z,0.97
2019-06-02T10:48:15.555Z,1.30
2019-06-02T10:50:44.162Z,1.23
2019-06-02T10:53:13.709Z,0.93
2019-06-02T10:55:43.114Z,1.80
2019-06-02T10:58:12.548Z,1.23
2019-06-02T11:00:41.391Z,1.20
2019-06-02T11:03:10.762Z,0.90
2019-06-02T11:05:39.258Z,1.13
2019-06-02T11:08:08.818Z,0.70
2019-06-02T11:10:37.340Z,1.17
2019-06-02T11:13:05.773Z,1.70
2019-06-02T11:15:34.186Z,1.40
2019-06-02T11:18:02.672Z,1.70
2019-06-02T11:20:31.095Z,1.67
2019-06-02T11:22:59.511Z,1.53
2019-06-02T11:25:27.951Z,0.90
2019-06-02T11:27:56.375Z,1.53
2019-06-02T11:30:25.454Z,1.37
2019-06-02T11:32:54.013Z,1.70
2019-06-02T11:35:22.445Z,1.73
2019-06-02T11:37:51.032Z,1.63
2019-06-02T11:40:20.250Z,1.57
2019-06-02T11:42:48.875Z,1.23
2019-06-02T11:45:18.464Z,1.00
2019-06-02T11:47:47.229Z,1.03
2019-06-02T11:50:16.782Z,2.57
2019-06-02T11:52:45.434Z,0.97
2019-06-02T11:55:14.046Z,0.93
2019-06-02T11:57:42.475Z,1.10
2019-06-02T12:00:12.168Z,2.10
2019-06-02T12:02:40.602Z,1.00
2019-06-02T12:05:09.097Z,1.03
2019-06-02T12:07:37.957Z,0.87
2019-06-02T12:10:09.548Z,0.73
2019-06-02T12:12:37.961Z,1.30
2019-06-02T12:15:07.018Z,1.07
2019-06-02T12:17:35.543Z,1.10
2019-06-02T12:20:07.288Z,1.43
2019-06-02T12:22:35.714Z,1.10
2019-06-02T12:25:06.577Z,0.80
2019-06-02T12:27:35.004Z,0.83
2019-06-02T12:30:07.620Z,1.13
2019-06-02T12:32:36.068Z,1.30
2019-06-02T12:35:06.043Z,1.17
2019-06-02T12:37:34.463Z,0.90
2019-06-02T12:40:03.389Z,0.90
2019-06-02T12:42:31.824Z,1.10
2019-06-02T12:45:00.254Z,0.80
2019-06-02T12:47:28.704Z,1.00
2019-06-02T12:49:57.138Z,0.90
2019-06-02T12:52:38.836Z,1.33
2019-06-02T12:54:55.642Z,0.60
2019-06-02T12:57:29.965Z,0.70
2019-06-02T12:59:54.151Z,0.70
2019-06-02T13:02:23.640Z,0.73
2019-06-02T13:04:52.275Z,0.53
2019-06-02T13:07:21.819Z,0.70
2019-06-02T13:09:50.456Z,1.30
2019-06-02T13:12:20.104Z,0.73
2019-06-02T13:14:51.809Z,0.80
2019-06-02T13:17:20.515Z,0.77
2019-06-02T13:19:49.183Z,0.60
2019-06-02T13:22:18.459Z,1.13
2019-06-02T13:24:47.580Z,1.73
2019-06-02T13:27:16.000Z,1.13
2019-06-02T13:29:44.426Z,0.83
2019-06-02T13:32:12.899Z,2.10
2019-06-02T13:34:41.311Z,1.40
2019-06-02T13:37:09.734Z,2.00
2019-06-02T13:39:38.192Z,1.00
2019-06-02T13:42:06.616Z,0.87
2019-06-02T13:44:35.044Z,0.70
2019-06-02T13:47:03.532Z,0.70
2019-06-02T13:49:34.236Z,0.60
2019-06-02T13:52:02.010Z,0.30
2019-06-02T13:54:30.578Z,0.70
2019-06-02T13:56:58.964Z,0.70
2019-06-02T13:59:27.950Z,0.73
2019-06-02T14:01:56.518Z,0.80
2019-06-02T14:04:26.090Z,0.90
2019-06-02T14:06:54.729Z,0.70
2019-06-02T14:09:24.466Z,0.50
2019-06-02T14:11:53.009Z,0.30
2019-06-02T14:14:22.574Z,1.00
2019-06-02T14:16:51.091Z,0.90
2019-06-02T14:19:20.711Z,0.60
2019-06-02T14:21:49.243Z,0.70
2019-06-02T14:24:17.700Z,0.70
2019-06-02T14:26:46.132Z,0.70
2019-06-02T14:29:14.562Z,0.77
2019-06-02T14:31:43.012Z,1.10
2019-06-02T14:34:11.436Z,0.77
2019-06-02T14:36:39.859Z,0.60
2019-06-02T14:39:09.276Z,0.70
2019-06-02T14:41:37.683Z,0.83
2019-06-02T14:44:06.174Z,0.60
2019-06-02T14:46:34.624Z,0.40
2019-06-02T14:49:03.036Z,0.50
2019-06-02T14:51:32.547Z,0.50
2019-06-02T14:54:01.012Z,1.23
2019-06-02T14:56:29.433Z,0.50
2019-06-02T14:58:58.116Z,0.40
2019-06-02T15:01:26.582Z,0.50
2019-06-02T15:03:54.999Z,0.63
2019-06-02T15:06:24.417Z,0.53
2019-06-02T15:08:53.030Z,0.40
2019-06-02T15:11:21.422Z,0.97
2019-06-02T15:13:49.838Z,0.60
2019-06-02T15:16:18.279Z,0.53
2019-06-02T15:18:46.707Z,0.57
2019-06-02T15:21:15.122Z,1.37
2019-06-02T15:23:59.202Z,0.67
2019-06-02T15:26:13.643Z,0.50
2019-06-02T15:28:42.073Z,1.03
2019-06-02T15:31:10.520Z,1.03
2019-06-02T15:33:38.944Z,0.43
2019-06-02T15:36:07.380Z,1.47
2019-06-02T15:38:37.032Z,1.57
2019-06-02T15:41:05.551Z,3.43
2019-06-02T15:43:33.977Z,1.27
2019-06-02T15:46:02.504Z,0.60
2019-06-02T15:48:31.905Z,1.60
2019-06-02T15:51:00.539Z,0.90
2019-06-02T15:53:29.555Z,1.80
2019-06-02T15:55:58.419Z,0.50
2019-06-02T15:58:26.846Z,0.60
2019-06-02T16:00:55.300Z,0.80
2019-06-02T16:03:23.708Z,0.40
2019-06-02T16:05:52.147Z,0.40
2019-06-02T16:08:20.599Z,0.40
2019-06-02T16:10:49.031Z,0.40
2019-06-02T16:13:17.447Z,0.30
2019-06-02T16:15:45.895Z,0.40
2019-06-02T16:18:14.299Z,0.40
2019-06-02T16:20:43.651Z,0.80
2019-06-02T16:23:12.124Z,0.40
2019-06-02T16:25:40.538Z,0.60
2019-06-02T16:28:09.015Z,0.50
2019-06-02T16:30:39.978Z,0.40
2019-06-02T16:33:08.723Z,0.53
2019-06-02T16:35:37.628Z,0.37
2019-06-02T16:38:06.183Z,0.33
2019-06-02T16:40:35.845Z,0.50
2019-06-02T16:43:04.433Z,1.00
2019-06-02T16:45:32.887Z,0.67
2019-06-02T16:48:01.307Z,0.40
2019-06-02T16:50:29.728Z,0.60
2019-06-02T16:52:58.168Z,2.00
2019-06-02T16:55:26.582Z,0.50
2019-06-02T16:57:54.987Z,0.50
2019-06-02T17:00:23.455Z,0.67
2019-06-02T17:02:51.860Z,0.43
2019-06-02T17:05:20.279Z,0.50
2019-06-02T17:07:48.921Z,0.80
2019-06-02T17:10:17.430Z,0.50
2019-06-02T17:12:46.505Z,0.40
2019-06-02T17:15:14.991Z,0.43
2019-06-02T17:17:56.718Z,0.60
2019-06-02T17:20:13.479Z,0.70
2019-06-02T17:22:43.114Z,1.00
2019-06-02T17:25:14.414Z,0.90
2019-06-02T17:27:46.784Z,1.07
2019-06-02T17:30:13.108Z,0.80
2019-06-02T17:32:42.087Z,2.53
2019-06-02T17:35:10.666Z,0.63
2019-06-02T17:37:40.418Z,0.90
2019-06-02T17:40:08.950Z,1.33
2019-06-02T17:42:37.438Z,1.03
2019-06-02T17:45:06.813Z,1.20
2019-06-02T17:47:35.398Z,0.77
2019-06-02T17:50:05.958Z,0.77
2019-06-02T17:52:34.419Z,1.20
2019-06-02T17:55:02.918Z,1.27
2019-06-02T17:57:31.354Z,0.80
2019-06-02T17:59:59.799Z,0.80
2019-06-02T18:02:28.563Z,0.87
2019-06-02T18:04:56.982Z,0.97
2019-06-02T18:07:25.423Z,0.60
2019-06-02T18:09:53.841Z,0.70
2019-06-02T18:12:22.258Z,0.80
2019-06-02T18:14:50.961Z,0.97
2019-06-02T18:17:19.446Z,0.63
2019-06-02T18:19:48.351Z,0.90
2019-06-02T18:22:18.046Z,0.60
2019-06-02T18:24:47.693Z,0.77
2019-06-02T18:27:16.795Z,1.00
2019-06-02T18:29:47.057Z,0.80
2019-06-02T18:32:15.594Z,0.70
2019-06-02T18:34:44.298Z,0.67
2019-06-02T18:37:12.882Z,1.40
2019-06-02T18:39:41.746Z,0.80
2019-06-02T18:42:10.161Z,0.90
2019-06-02T18:44:38.600Z,0.80
2019-06-02T18:47:07.035Z,0.60
2019-06-02T18:49:35.502Z,2.00
2019-06-02T18:52:07.169Z,0.93
2019-06-02T18:54:33.999Z,0.90
2019-06-02T18:57:02.831Z,0.87
2019-06-02T18:59:31.421Z,0.80
2019-06-02T19:01:59.807Z,0.80
2019-06-02T19:04:28.250Z,9.33
2019-06-02T19:06:56.700Z,8.50
2019-06-02T19:09:25.118Z,7.70
2019-06-02T19:11:54.692Z,7.20
2019-06-02T19:14:23.185Z,5.97
2019-06-02T19:16:51.906Z,6.90
2019-06-02T19:19:20.343Z,6.60
2019-06-02T19:21:50.114Z,5.83
2019-06-02T19:24:18.870Z,4.40
2019-06-02T19:26:48.539Z,2.70
2019-06-02T19:29:17.150Z,2.73
2019-06-02T19:31:45.567Z,2.43
2019-06-02T19:34:13.982Z,2.00
2019-06-02T19:36:42.429Z,2.07
2019-06-02T19:39:10.853Z,2.13
2019-06-02T19:41:39.267Z,1.40
2019-06-02T19:44:07.785Z,2.00
2019-06-02T19:46:36.206Z,1.13
2019-06-02T19:49:04.690Z,1.00
2019-06-02T19:51:33.453Z,1.30
2019-06-02T19:54:01.876Z,1.00
2019-06-02T19:56:43.041Z,0.70
2019-06-02T19:59:00.929Z,0.80
2019-06-02T20:01:29.451Z,0.87
2019-06-02T20:03:57.866Z,0.70
2019-06-02T20:06:26.314Z,1.00
2019-06-02T20:08:55.859Z,0.83
2019-06-02T20:11:24.350Z,1.10
2019-06-02T20:13:53.309Z,1.00
2019-06-02T20:16:21.806Z,1.07
2019-06-02T20:18:50.226Z,1.30
2019-06-02T20:21:18.671Z,1.43
2019-06-02T20:23:47.102Z,0.90
2019-06-02T20:26:15.514Z,0.83
2019-06-02T20:28:43.988Z,0.67
2019-06-02T20:31:12.421Z,0.70
2019-06-02T20:33:40.839Z,1.07
2019-06-02T20:36:09.285Z,0.70
2019-06-02T20:38:37.712Z,0.67
2019-06-02T20:41:08.990Z,0.80
2019-06-02T20:43:36.241Z,0.87
2019-06-02T20:46:06.093Z,0.87
2019-06-02T20:48:34.657Z,0.80
2019-06-02T20:51:03.831Z,1.23
2019-06-02T20:53:32.349Z,0.60
2019-06-02T20:56:02.619Z,1.23
2019-06-02T20:58:30.874Z,0.80
2019-06-02T21:01:00.715Z,0.60
2019-06-02T21:03:29.375Z,0.60
2019-06-02T21:05:58.745Z,1.43
2019-06-02T21:08:27.251Z,0.90
2019-06-02T21:10:55.654Z,0.90
2019-06-02T21:13:24.123Z,1.73
2019-06-02T21:15:52.542Z,0.70
2019-06-02T21:18:20.960Z,0.73
2019-06-02T21:20:49.402Z,0.50
2019-06-02T21:23:17.824Z,1.47
2019-06-02T21:25:46.246Z,0.80
2019-06-02T21:28:14.696Z,1.00
2019-06-02T21:30:43.115Z,0.60
2019-06-02T21:33:11.534Z,1.00
2019-06-02T21:35:39.982Z,0.80
2019-06-02T21:38:08.392Z,0.70
2019-06-02T21:40:36.847Z,0.80
2019-06-02T21:43:06.901Z,1.27
2019-06-02T21:45:35.350Z,0.73
2019-06-02T21:48:04.179Z,1.30
2019-06-02T21:50:32.625Z,0.73
2019-06-02T21:53:02.588Z,1.10
2019-06-02T21:55:31.509Z,0.77
2019-06-02T21:58:00.987Z,0.73
2019-06-02T22:01:01.106Z,1.07
2019-06-02T22:03:32.059Z,0.80
2019-06-02T22:06:01.006Z,0.90
2019-06-02T22:08:29.504Z,1.73
2019-06-02T22:10:57.958Z,0.70
2019-06-02T22:13:26.384Z,0.73
2019-06-02T22:15:54.802Z,1.27
2019-06-02T22:18:23.264Z,1.00
2019-06-02T22:20:51.678Z,0.80
2019-06-02T22:23:20.094Z,0.63
2019-06-02T22:25:48.990Z,0.60
2019-06-02T22:28:24.034Z,0.97
2019-06-02T22:30:47.474Z,0.60
2019-06-02T22:33:16.262Z,1.97
2019-06-02T22:35:44.737Z,1.17
2019-06-02T22:38:13.160Z,1.03
2019-06-02T22:40:41.604Z,0.90
2019-06-02T22:43:10.596Z,0.87
2019-06-02T22:45:39.058Z,0.83
2019-06-02T22:48:10.175Z,0.87
2019-06-02T22:50:38.676Z,1.00
2019-06-02T22:53:08.828Z,1.00
2019-06-02T22:55:37.550Z,0.70
2019-06-02T22:58:11.088Z,0.73
2019-06-02T23:00:49.864Z,0.90
2019-06-02T23:03:18.436Z,0.80
2019-06-02T23:05:46.905Z,1.30
2019-06-02T23:08:16.367Z,1.40
2019-06-02T23:10:44.907Z,1.00
2019-06-02T23:13:14.460Z,0.70
2019-06-02T23:15:43.286Z,0.90
2019-06-02T23:18:12.847Z,1.80
2019-06-02T23:20:41.590Z,1.23
2019-06-02T23:23:11.182Z,0.77
2019-06-02T23:25:39.650Z,0.73
2019-06-02T23:28:09.284Z,2.20
2019-06-02T23:30:37.829Z,1.10
2019-06-02T23:33:07.514Z,0.90
2019-06-02T23:35:36.090Z,1.07
2019-06-02T23:38:05.112Z,0.80
2019-06-02T23:40:33.540Z,1.33
2019-06-02T23:43:01.984Z,1.07
2019-06-02T23:45:30.426Z,1.53
2019-06-02T23:47:58.844Z,1.03
2019-06-02T23:50:35.187Z,0.80
2019-06-02T23:53:03.623Z,0.73
2019-06-02T23:55:32.117Z,0.87
2019-06-02T23:58:00.709Z,1.97
